Time;durP1;ratioP1;P1;durP2;ratioP2;P2;SDS_P1;SDS_P2;PMS_P1;PMS_P2;Temp;Humidity;BMP_temperature;BMP_pressure;BME280_temperature;BME280_humidity;BME280_pressure;Samples;Min_cycle;Max_cycle;Signal;HPM_P1;HPM_P2
2023/02/09 00:00:08;;;;;;;1.60;0.90;;;17.90;66.70;;;;;;6216913;23;20005;-67
2023/02/09 00:02:34;;;;;;;1.67;0.88;;;17.80;66.90;;;;;;6215820;23;20039;-67
2023/02/09 00:05:00;;;;;;;2.40;0.88;;;17.80;67.00;;;;;;6215128;23;20005;-67
2023/02/09 00:07:25;;;;;;;1.30;1.00;;;17.80;67.00;;;;;;6215638;23;20005;-67
2023/02/09 00:09:51;;;;;;;0.70;0.70;;;17.80;67.30;;;;;;6215852;23;20000;-67
2023/02/09 00:15:01;;;;;;;0.80;0.80;;;17.70;67.20;;;;;;6214848;23;20563;-67
2023/02/09 00:17:27;;;;;;;0.70;0.70;;;17.70;67.30;;;;;;6214590;23;20024;-67
2023/02/09 00:19:53;;;;;;;0.93;0.70;;;17.70;67.30;;;;;;6214678;23;20050;-67
2023/02/09 00:22:19;;;;;;;2.10;0.85;;;17.60;67.30;;;;;;6215874;23;20007;-67
2023/02/09 00:24:45;;;;;;;1.13;0.88;;;17.60;67.60;;;;;;6214281;23;20005;-67
2023/02/09 00:27:10;;;;;;;0.70;0.70;;;17.60;67.60;;;;;;6215682;23;20021;-67
2023/02/09 00:29:36;;;;;;;1.33;0.88;;;17.60;67.70;;;;;;6216116;23;20001;-67
2023/02/09 00:32:02;;;;;;;1.75;1.05;;;17.60;67.70;;;;;;6214435;23;20301;-67
2023/02/09 00:34:27;;;;;;;0.98;0.82;;;17.50;67.70;;;;;;6215608;23;20000;-67
2023/02/09 00:36:53;;;;;;;0.70;0.70;;;17.50;67.90;;;;;;6214614;23;20071;-67
2023/02/09 00:39:18;;;;;;;0.80;0.80;;;17.50;68.00;;;;;;6215535;23;20031;-67
2023/02/09 00:44:28;;;;;;;0.90;0.80;;;17.40;68.10;;;;;;6215787;23;20050;-67
2023/02/09 00:46:54;;;;;;;0.88;0.82;;;17.40;68.20;;;;;;6215992;23;20000;-67
2023/02/09 00:49:19;;;;;;;2.75;0.63;;;17.40;68.20;;;;;;6215506;23;20000;-67
2023/02/09 00:51:45;;;;;;;1.05;0.90;;;17.40;68.20;;;;;;6214311;23;19996;-67
2023/02/09 00:54:12;;;;;;;0.90;0.77;;;17.30;68.20;;;;;;6215515;23;19996;-67
2023/02/09 00:56:37;;;;;;;0.80;0.70;;;17.30;68.20;;;;;;6214157;23;20000;-67
2023/02/09 00:59:03;;;;;;;1.33;0.80;;;17.30;68.30;;;;;;6215660;23;20001;-67
2023/02/09 01:01:28;;;;;;;2.38;0.90;;;17.30;68.40;;;;;;6214150;23;19997;-67
2023/02/09 01:03:55;;;;;;;4.38;0.98;;;17.30;68.40;;;;;;6188990;23;20001;-67
2023/02/09 01:06:20;;;;;;;1.60;0.90;;;17.30;68.50;;;;;;6214231;23;20008;-67
2023/02/09 01:08:46;;;;;;;1.33;0.90;;;17.30;68.20;;;;;;6213951;23;20004;-67
2023/02/09 01:11:13;;;;;;;1.10;1.00;;;17.30;68.30;;;;;;6213929;23;20434;-67
2023/02/09 01:13:39;;;;;;;1.40;0.85;;;17.20;68.30;;;;;;6214020;23;20341;-67
2023/02/09 01:16:10;;;;;;;1.77;0.95;;;17.20;68.40;;;;;;6215448;23;20020;-67
2023/02/09 01:18:35;;;;;;;1.05;0.70;;;17.20;68.50;;;;;;6189142;23;20004;-68
2023/02/09 01:21:01;;;;;;;1.00;0.80;;;17.10;68.50;;;;;;6215653;23;20074;-67
2023/02/09 01:23:26;;;;;;;2.13;0.90;;;17.10;68.60;;;;;;6215055;23;20004;-67
2023/02/09 01:26:05;;;;;;;1.92;0.88;;;17.10;68.60;;;;;;6213965;23;20007;-67
2023/02/09 01:28:31;;;;;;;1.70;0.93;;;17.10;69.00;;;;;;6189419;23;20013;-67
2023/02/09 01:30:56;;;;;;;1.13;0.80;;;17.10;68.90;;;;;;6215385;23;20004;-68
2023/02/09 01:33:22;;;;;;;0.65;0.65;;;17.10;68.90;;;;;;6215238;23;20043;-67
2023/02/09 01:35:48;;;;;;;3.05;0.95;;;17.10;69.10;;;;;;6215318;23;20001;-67
2023/02/09 01:38:13;;;;;;;1.30;0.90;;;17.00;68.90;;;;;;6215091;23;20001;-67
2023/02/09 01:40:39;;;;;;;0.82;0.80;;;17.00;69.00;;;;;;6213800;23;20001;-67
2023/02/09 01:43:04;;;;;;;2.20;0.80;;;17.00;69.10;;;;;;6213834;23;20004;-67
2023/02/09 01:45:35;;;;;;;2.08;1.00;;;16.90;69.10;;;;;;6215247;23;20075;-67
2023/02/09 01:48:02;;;;;;;1.42;0.90;;;17.00;69.10;;;;;;6213691;23;20011;-67
2023/02/09 01:50:29;;;;;;;1.05;0.77;;;16.90;69.20;;;;;;6213468;23;20437;-67
2023/02/09 01:52:55;;;;;;;1.85;0.70;;;16.90;69.10;;;;;;6213829;23;20007;-67
2023/02/09 01:55:23;;;;;;;1.35;0.85;;;16.90;69.20;;;;;;6188520;23;20036;-67
2023/02/09 01:57:55;;;;;;;2.88;0.93;;;16.90;69.20;;;;;;6189037;23;20028;-67
2023/02/09 02:00:21;;;;;;;2.00;1.33;;;16.90;69.20;;;;;;6213593;23;20001;-67
2023/02/09 02:02:51;;;;;;;1.98;1.08;;;16.80;69.30;;;;;;6213708;23;20281;-67
2023/02/09 02:05:17;;;;;;;1.55;1.05;;;16.80;69.30;;;;;;6213389;23;20004;-67
2023/02/09 02:07:50;;;;;;;2.72;0.85;;;16.80;69.40;;;;;;6213583;23;20000;-67
2023/02/09 02:10:16;;;;;;;1.27;0.98;;;16.80;69.50;;;;;;6188934;23;20004;-67
2023/02/09 02:12:41;;;;;;;0.73;0.73;;;16.80;69.40;;;;;;6214553;23;20059;-67
2023/02/09 02:15:07;;;;;;;1.13;0.80;;;16.80;69.60;;;;;;6214752;23;20076;-67
2023/02/09 02:17:48;;;;;;;0.90;0.77;;;16.80;69.60;;;;;;6215252;23;20020;-67
2023/02/09 02:20:38;;;;;;;1.05;0.95;;;16.70;69.70;;;;;;6214724;23;20058;-67
2023/02/09 02:23:25;;;;;;;0.82;0.82;;;16.70;69.70;;;;;;6214874;23;20004;-67
2023/02/09 02:26:15;;;;;;;1.25;0.80;;;16.70;69.80;;;;;;6214829;23;20005;-67
2023/02/09 02:29:19;;;;;;;0.75;0.75;;;16.70;69.80;;;;;;6214418;23;20512;-67
2023/02/09 02:31:48;;;;;;;0.63;0.60;;;16.70;69.90;;;;;;6213826;23;20058;-67
2023/02/09 02:34:35;;;;;;;0.60;0.60;;;16.70;69.90;;;;;;6214668;23;20008;-67
2023/02/09 02:37:25;;;;;;;0.70;0.70;;;16.60;70.00;;;;;;6213593;23;20318;-67
2023/02/09 02:40:09;;;;;;;0.68;0.68;;;16.60;70.00;;;;;;6214644;23;20004;-67
2023/02/09 02:42:48;;;;;;;1.48;0.90;;;16.60;70.20;;;;;;6189535;23;20389;-67
2023/02/09 02:45:49;;;;;;;1.23;0.70;;;16.60;70.30;;;;;;6190675;23;20008;-67
2023/02/09 02:48:26;;;;;;;0.80;0.80;;;16.60;70.30;;;;;;6093432;23;20008;-68
2023/02/09 02:51:03;;;;;;;0.93;0.82;;;16.60;70.40;;;;;;6093626;23;20037;-67
2023/02/09 02:53:30;;;;;;;1.08;0.80;;;16.60;70.50;;;;;;6070380;23;20093;-67
2023/02/09 02:56:11;;;;;;;0.95;0.70;;;16.50;70.40;;;;;;6069728;23;20010;-67
2023/02/09 02:58:38;;;;;;;1.17;0.80;;;16.50;70.40;;;;;;6070200;23;20002;-67
2023/02/09 03:01:03;;;;;;;0.70;0.70;;;16.50;70.50;;;;;;6069490;23;20002;-67
2023/02/09 03:03:31;;;;;;;1.13;0.80;;;16.50;70.50;;;;;;6069347;23;20017;-67
2023/02/09 03:05:58;;;;;;;0.90;0.80;;;16.50;70.80;;;;;;6069740;23;19998;-67
2023/02/09 03:08:23;;;;;;;2.88;0.90;;;16.50;70.80;;;;;;6069588;23;20086;-67
2023/02/09 03:10:49;;;;;;;1.35;0.70;;;16.50;70.70;;;;;;6093752;23;20439;-67
2023/02/09 03:13:48;;;;;;;0.82;0.70;;;16.50;70.80;;;;;;6069526;23;20388;-67
2023/02/09 03:16:46;;;;;;;2.40;0.80;;;16.50;70.80;;;;;;6093443;23;20033;-67
2023/02/09 03:19:29;;;;;;;1.35;0.98;;;16.50;71.00;;;;;;6073036;23;20006;-67
2023/02/09 03:22:10;;;;;;;0.95;0.93;;;16.50;70.90;;;;;;6069488;23;20085;-67
2023/02/09 03:24:46;;;;;;;5.13;1.48;;;16.50;70.90;;;;;;6170323;23;20000;-67
2023/02/09 03:27:19;;;;;;;0.95;0.80;;;16.50;70.90;;;;;;6216439;23;20036;-67
2023/02/09 03:29:46;;;;;;;1.15;1.05;;;16.40;71.00;;;;;;6215366;23;20007;-67
2023/02/09 03:32:11;;;;;;;0.95;0.70;;;16.40;70.90;;;;;;6189964;23;20001;-67
2023/02/09 03:34:37;;;;;;;1.30;0.90;;;16.40;71.00;;;;;;6214918;23;20000;-67
2023/02/09 03:37:03;;;;;;;0.88;0.80;;;16.40;71.20;;;;;;6190060;23;20000;-67
2023/02/09 03:39:28;;;;;;;1.70;0.70;;;16.40;71.00;;;;;;6216628;23;20473;-67
2023/02/09 03:41:54;;;;;;;1.08;0.57;;;16.40;71.00;;;;;;6216423;23;20008;-67
2023/02/09 03:44:25;;;;;;;0.85;0.80;;;16.40;71.30;;;;;;6216589;23;20481;-67
2023/02/09 03:46:59;;;;;;;0.73;0.73;;;16.40;71.10;;;;;;6216261;23;19996;-67
2023/02/09 03:49:25;;;;;;;2.58;0.70;;;16.40;71.20;;;;;;6216190;23;20032;-67
2023/02/09 03:51:51;;;;;;;0.77;0.70;;;16.30;71.20;;;;;;6216314;23;20455;-67
2023/02/09 03:54:17;;;;;;;1.33;0.70;;;16.30;71.10;;;;;;6215048;23;20028;-67
2023/02/09 03:56:42;;;;;;;1.23;0.82;;;16.30;71.20;;;;;;6216212;23;20001;-67
2023/02/09 03:59:08;;;;;;;1.75;0.70;;;16.30;71.20;;;;;;6189729;23;20028;-67
2023/02/09 04:01:34;;;;;;;0.70;0.70;;;16.30;71.30;;;;;;6216050;23;20008;-67
2023/02/09 04:04:00;;;;;;;0.70;0.70;;;16.30;71.40;;;;;;6214817;23;20011;-67
2023/02/09 04:06:27;;;;;;;1.23;0.90;;;16.30;71.50;;;;;;6216191;23;20056;-67
2023/02/09 04:08:53;;;;;;;0.90;0.70;;;16.30;71.40;;;;;;6214874;23;20512;-67
2023/02/09 04:11:18;;;;;;;1.92;0.80;;;16.20;71.50;;;;;;6215981;23;20032;-67
2023/02/09 04:13:44;;;;;;;1.10;0.80;;;16.30;71.50;;;;;;6215945;23;20016;-67
2023/02/09 04:16:10;;;;;;;0.60;0.60;;;16.20;72.50;;;;;;6214468;23;20001;-67
2023/02/09 04:18:35;;;;;;;1.15;0.90;;;16.20;71.50;;;;;;6215854;23;19997;-67
2023/02/09 04:21:01;;;;;;;1.75;0.75;;;16.20;71.50;;;;;;6214725;23;20000;-67
2023/02/09 04:23:26;;;;;;;0.70;0.70;;;16.20;71.60;;;;;;6216019;23;20075;-67
2023/02/09 04:25:52;;;;;;;0.60;0.60;;;16.20;71.50;;;;;;6216020;23;20001;-68
2023/02/09 04:28:18;;;;;;;1.02;0.80;;;16.20;71.60;;;;;;6214468;23;20024;-67
2023/02/09 04:30:43;;;;;;;0.98;0.70;;;16.20;71.50;;;;;;6215574;23;20057;-67
2023/02/09 04:33:12;;;;;;;1.08;0.70;;;16.20;71.50;;;;;;6215836;23;20050;-67
2023/02/09 04:35:38;;;;;;;1.92;0.90;;;16.20;71.60;;;;;;6214194;23;20001;-67
2023/02/09 04:38:03;;;;;;;0.80;0.70;;;16.20;71.60;;;;;;6215942;23;20011;-67
2023/02/09 04:40:29;;;;;;;1.50;0.55;;;16.10;72.70;;;;;;6214417;23;20021;-67
2023/02/09 04:42:54;;;;;;;0.60;0.60;;;16.10;71.60;;;;;;6215849;23;20005;-67
2023/02/09 04:45:20;;;;;;;0.80;0.80;;;16.10;71.70;;;;;;6215499;23;20019;-67
2023/02/09 04:47:46;;;;;;;0.98;0.70;;;16.10;71.60;;;;;;6215608;23;20004;-67
2023/02/09 04:50:11;;;;;;;0.90;0.70;;;16.10;71.50;;;;;;6215914;23;20005;-68
2023/02/09 04:52:37;;;;;;;4.88;0.90;;;16.10;71.80;;;;;;6214124;23;20369;-67
2023/02/09 04:55:03;;;;;;;1.60;0.60;;;16.10;71.50;;;;;;6215650;23;20000;-67
2023/02/09 05:00:13;;;;;;;0.70;0.70;;;16.10;71.80;;;;;;6214322;23;20080;-67
2023/02/09 05:02:38;;;;;;;0.70;0.63;;;16.10;71.70;;;;;;6215822;23;20036;-67
2023/02/09 05:05:04;;;;;;;2.17;0.60;;;16.10;71.80;;;;;;6214287;23;20008;-67
2023/02/09 05:07:30;;;;;;;0.60;0.60;;;16.10;71.80;;;;;;6215673;23;20079;-67
2023/02/09 05:09:55;;;;;;;3.70;0.85;;;16.10;71.80;;;;;;6215268;23;20009;-67
2023/02/09 05:12:21;;;;;;;0.80;0.80;;;16.10;71.80;;;;;;6214087;23;20431;-67
2023/02/09 05:14:47;;;;;;;1.35;0.90;;;16.10;72.00;;;;;;6215159;23;20071;-67
2023/02/09 05:17:13;;;;;;;0.90;0.70;;;16.00;72.00;;;;;;6216014;23;20060;-67
2023/02/09 05:19:39;;;;;;;1.52;0.82;;;16.00;72.00;;;;;;6214074;23;20020;-67
2023/02/09 05:22:04;;;;;;;0.60;0.60;;;16.10;72.10;;;;;;6215335;23;20054;-67
2023/02/09 05:24:30;;;;;;;0.75;0.75;;;16.00;72.00;;;;;;6213935;23;20051;-67
2023/02/09 05:26:56;;;;;;;1.65;0.70;;;16.00;72.10;;;;;;6215339;23;20040;-67
2023/02/09 05:29:21;;;;;;;1.90;0.73;;;16.00;72.20;;;;;;6215122;23;20088;-67
2023/02/09 05:31:47;;;;;;;0.88;0.70;;;16.00;72.10;;;;;;6215245;23;19997;-67
2023/02/09 05:34:12;;;;;;;0.77;0.77;;;16.00;72.20;;;;;;6215313;23;20001;-67
2023/02/09 05:36:38;;;;;;;1.48;0.70;;;15.90;72.20;;;;;;6215168;23;20008;-67
2023/02/09 05:39:04;;;;;;;0.73;0.70;;;15.90;72.20;;;;;;6215330;23;20011;-67
2023/02/09 05:44:13;;;;;;;0.80;0.70;;;15.90;72.20;;;;;;6215167;23;20100;-67
2023/02/09 05:46:39;;;;;;;1.45;0.80;;;15.90;72.30;;;;;;6214880;23;20386;-67
2023/02/09 05:49:04;;;;;;;0.68;0.68;;;15.90;72.40;;;;;;6213404;23;20452;-67
2023/02/09 05:51:30;;;;;;;0.70;0.70;;;15.90;72.20;;;;;;6215216;23;20001;-67
2023/02/09 05:53:56;;;;;;;1.10;1.00;;;15.90;72.30;;;;;;6214985;23;20001;-67
2023/02/09 05:56:21;;;;;;;1.55;0.93;;;15.90;72.30;;;;;;6213627;23;19997;-67
2023/02/09 05:58:47;;;;;;;0.90;0.90;;;15.90;72.40;;;;;;6213665;23;20333;-67
2023/02/09 06:01:13;;;;;;;1.10;0.80;;;15.90;72.30;;;;;;6215167;23;20000;-67
2023/02/09 06:03:38;;;;;;;1.05;0.95;;;15.90;72.40;;;;;;6214886;23;20055;-67
2023/02/09 06:06:04;;;;;;;0.68;0.68;;;15.90;72.40;;;;;;6214989;23;20055;-67
2023/02/09 06:08:30;;;;;;;0.80;0.80;;;15.90;72.40;;;;;;6215227;23;20005;-66
2023/02/09 06:10:55;;;;;;;1.27;0.70;;;15.90;72.50;;;;;;6214892;23;20341;-67
2023/02/09 06:13:21;;;;;;;1.77;0.80;;;15.90;72.80;;;;;;6214514;23;20456;-67
2023/02/09 06:15:47;;;;;;;2.47;0.70;;;15.90;72.80;;;;;;6213137;23;20396;-67
2023/02/09 06:18:12;;;;;;;0.55;0.55;;;15.90;72.80;;;;;;6214905;23;20072;-67
2023/02/09 06:20:38;;;;;;;1.60;1.00;;;15.80;72.80;;;;;;6214713;23;20028;-67
2023/02/09 06:23:03;;;;;;;0.93;0.65;;;15.90;72.80;;;;;;6214899;23;20028;-67
2023/02/09 06:25:29;;;;;;;1.08;0.73;;;15.80;72.70;;;;;;6214900;23;20000;-67
2023/02/09 06:27:55;;;;;;;2.05;0.70;;;15.90;72.80;;;;;;6212791;23;20020;-67
2023/02/09 06:30:20;;;;;;;1.20;0.55;;;15.80;72.80;;;;;;6215009;23;20005;-67
2023/02/09 06:32:46;;;;;;;0.77;0.77;;;15.80;72.90;;;;;;6213102;23;20063;-67
2023/02/09 06:35:12;;;;;;;1.17;0.60;;;15.80;72.90;;;;;;6214769;23;19997;-67
2023/02/09 06:37:37;;;;;;;0.73;0.70;;;15.80;73.00;;;;;;6214859;23;19996;-67
2023/02/09 06:40:03;;;;;;;1.25;0.90;;;15.80;73.00;;;;;;6214522;23;20051;-67
2023/02/09 06:42:42;;;;;;;2.25;0.73;;;15.80;73.10;;;;;;6214434;23;20004;-67
2023/02/09 06:45:17;;;;;;;1.60;0.68;;;15.80;73.20;;;;;;6214732;23;20035;-67
2023/02/09 06:47:43;;;;;;;2.70;1.15;;;15.80;73.20;;;;;;6214514;23;20015;-67
2023/02/09 06:50:10;;;;;;;0.70;0.70;;;15.80;74.20;;;;;;6214862;23;20337;-67
2023/02/09 06:52:35;;;;;;;1.67;0.70;;;15.70;73.10;;;;;;6188196;23;20005;-67
2023/02/09 06:55:01;;;;;;;0.70;0.60;;;15.70;73.20;;;;;;6214366;23;20010;-67
2023/02/09 06:57:28;;;;;;;0.90;0.68;;;15.70;73.20;;;;;;6214533;23;20000;-67
2023/02/09 06:59:54;;;;;;;1.45;0.70;;;15.70;73.20;;;;;;6214686;23;20047;-67
2023/02/09 07:02:19;;;;;;;0.93;0.60;;;15.70;73.20;;;;;;6214814;23;20013;-67
2023/02/09 07:04:45;;;;;;;0.60;0.60;;;15.70;73.30;;;;;;6214503;23;20001;-67
2023/02/09 07:07:11;;;;;;;0.80;0.57;;;15.70;73.20;;;;;;6213200;23;20078;-67
2023/02/09 07:09:36;;;;;;;2.35;0.80;;;15.70;73.20;;;;;;6187980;23;20004;-66
2023/02/09 07:12:02;;;;;;;0.75;0.60;;;15.70;73.10;;;;;;6214509;23;20008;-66
2023/02/09 07:14:28;;;;;;;0.60;0.60;;;15.80;72.90;;;;;;6214394;23;20001;-66
2023/02/09 07:16:53;;;;;;;0.82;0.80;;;15.80;71.70;;;;;;6214397;23;20007;-67
2023/02/09 07:19:19;;;;;;;2.63;0.80;;;15.80;70.40;;;;;;6214845;23;20008;-67
2023/02/09 07:21:45;;;;;;;1.17;0.68;;;15.80;69.90;;;;;;6213103;23;20453;-67
2023/02/09 07:24:10;;;;;;;0.75;0.75;;;15.80;69.60;;;;;;6214313;23;20468;-67
2023/02/09 07:26:36;;;;;;;0.60;0.60;;;15.80;69.30;;;;;;6213794;23;20054;-67
2023/02/09 07:29:02;;;;;;;1.38;0.60;;;15.80;69.00;;;;;;6211913;23;20063;-66
2023/02/09 07:31:28;;;;;;;0.50;0.50;;;15.80;68.90;;;;;;6211858;23;20013;-67
2023/02/09 07:33:54;;;;;;;2.10;0.70;;;15.80;68.70;;;;;;6213221;23;20005;-67
2023/02/09 07:36:20;;;;;;;1.75;0.70;;;15.80;68.70;;;;;;6213596;23;20072;-67
2023/02/09 07:38:45;;;;;;;1.70;0.90;;;15.80;68.60;;;;;;6212969;23;20405;-67
2023/02/09 07:41:16;;;;;;;2.15;0.85;;;15.80;69.70;;;;;;6211945;23;20023;-67
2023/02/09 07:43:42;;;;;;;1.80;0.98;;;15.90;68.70;;;;;;6213387;23;20449;-67
2023/02/09 07:46:08;;;;;;;4.00;0.98;;;15.90;68.70;;;;;;6213148;23;20082;-66
2023/02/09 07:48:34;;;;;;;29.05;5.03;;;15.90;68.70;;;;;;6213566;23;20088;-66
2023/02/09 07:50:59;;;;;;;24.25;4.30;;;15.90;69.80;;;;;;6187372;23;20438;-67
2023/02/09 07:53:25;;;;;;;24.50;4.00;;;15.90;70.10;;;;;;6210587;23;20013;-66
2023/02/09 07:55:51;;;;;;;24.65;4.25;;;16.00;70.90;;;;;;6210557;23;20003;-66
2023/02/09 07:58:18;;;;;;;13.88;3.38;;;16.00;71.50;;;;;;6212710;23;20667;-66
2023/02/09 08:00:45;;;;;;;20.45;3.30;;;16.00;71.60;;;;;;6213001;23;20066;-66
2023/02/09 08:03:10;;;;;;;9.57;2.90;;;16.00;71.50;;;;;;6212125;23;20536;-66
2023/02/09 08:06:02;;;;;;;16.20;3.60;;;16.00;71.30;;;;;;6213556;23;20079;-66
2023/02/09 08:08:28;;;;;;;11.63;2.60;;;16.00;71.00;;;;;;6212501;23;20009;-66
2023/02/09 08:10:54;;;;;;;13.40;2.42;;;16.00;70.90;;;;;;6214468;23;20135;-66
2023/02/09 08:13:20;;;;;;;17.23;3.63;;;16.00;70.70;;;;;;6214582;23;20051;-66
2023/02/09 08:15:47;;;;;;;10.10;2.95;;;16.00;70.50;;;;;;6189616;23;20000;-66
2023/02/09 08:18:15;;;;;;;10.63;2.78;;;16.00;70.30;;;;;;6190099;23;20043;-66
2023/02/09 08:20:41;;;;;;;11.85;2.75;;;16.00;70.20;;;;;;6216004;23;20001;-66
2023/02/09 08:23:18;;;;;;;10.43;3.13;;;16.10;70.10;;;;;;6215553;23;20016;-66
2023/02/09 08:25:46;;;;;;;10.60;2.35;;;16.00;70.00;;;;;;6214673;23;20075;-66
2023/02/09 08:28:12;;;;;;;9.85;2.50;;;16.00;70.00;;;;;;6215061;23;20365;-66
2023/02/09 08:30:37;;;;;;;8.48;2.33;;;16.10;69.80;;;;;;6214247;23;20008;-66
2023/02/09 08:33:03;;;;;;;7.75;2.60;;;16.10;69.80;;;;;;6215897;23;20001;-66
2023/02/09 08:35:28;;;;;;;7.15;2.60;;;16.10;69.80;;;;;;6214493;23;20001;-66
2023/02/09 08:37:58;;;;;;;7.70;2.50;;;16.10;69.60;;;;;;6215471;23;20005;-67
2023/02/09 08:40:23;;;;;;;9.23;2.30;;;16.10;69.60;;;;;;6189998;23;20001;-66
2023/02/09 08:42:49;;;;;;;9.68;2.15;;;16.10;69.50;;;;;;6215932;23;20102;-66
2023/02/09 08:45:15;;;;;;;10.38;2.70;;;16.10;69.40;;;;;;6214646;23;20004;-66
2023/02/09 08:47:40;;;;;;;10.15;3.05;;;16.10;69.40;;;;;;6216030;23;20012;-66
2023/02/09 08:50:06;;;;;;;8.85;2.13;;;16.10;69.40;;;;;;6216207;23;20047;-66
2023/02/09 08:52:32;;;;;;;5.68;2.10;;;16.10;69.40;;;;;;6213765;23;20382;-66
2023/02/09 08:54:57;;;;;;;7.40;2.30;;;16.10;69.30;;;;;;6216038;23;20000;-66
2023/02/09 08:57:23;;;;;;;5.63;2.15;;;16.10;69.30;;;;;;6215723;23;20344;-66
2023/02/09 08:59:49;;;;;;;8.35;2.08;;;16.10;69.20;;;;;;6215566;23;20001;-66
2023/02/09 09:02:14;;;;;;;7.15;1.85;;;16.10;69.20;;;;;;6214154;23;20001;-66
2023/02/09 09:04:40;;;;;;;6.85;1.70;;;16.10;69.20;;;;;;6215562;23;20007;-66
2023/02/09 09:07:06;;;;;;;5.97;1.95;;;16.10;69.20;;;;;;6215302;23;20000;-66
2023/02/09 09:09:31;;;;;;;5.85;2.00;;;16.10;69.20;;;;;;6215697;23;20001;-66
2023/02/09 09:11:57;;;;;;;9.32;2.30;;;16.10;69.20;;;;;;6214163;23;20377;-66
2023/02/09 09:14:25;;;;;;;6.35;2.25;;;16.10;69.20;;;;;;6215361;23;20028;-66
2023/02/09 09:16:51;;;;;;;5.47;1.80;;;16.10;69.20;;;;;;6215421;23;20437;-66
2023/02/09 09:19:16;;;;;;;4.70;2.00;;;16.10;69.10;;;;;;6215230;23;20076;-66
2023/02/09 09:21:42;;;;;;;3.17;1.70;;;16.10;69.10;;;;;;6214981;23;20020;-66
2023/02/09 09:24:08;;;;;;;4.40;1.90;;;16.10;69.10;;;;;;6213745;23;20009;-66
2023/02/09 09:26:34;;;;;;;6.03;1.80;;;16.10;69.10;;;;;;6215139;23;20047;-66
2023/02/09 09:28:59;;;;;;;4.47;1.75;;;16.10;69.10;;;;;;6214053;23;20075;-66
2023/02/09 09:31:25;;;;;;;3.85;1.75;;;16.10;69.00;;;;;;6213830;23;20032;-66
2023/02/09 09:33:51;;;;;;;6.30;1.95;;;16.10;69.00;;;;;;6215300;23;20337;-66
2023/02/09 09:36:16;;;;;;;3.05;1.50;;;16.10;68.90;;;;;;6214874;23;19996;-66
2023/02/09 09:38:42;;;;;;;2.47;1.50;;;16.10;68.90;;;;;;6215339;23;20004;-66
2023/02/09 09:41:25;;;;;;;3.58;1.55;;;16.10;68.90;;;;;;6215032;23;20060;-66
2023/02/09 09:43:51;;;;;;;5.57;1.98;;;16.10;68.90;;;;;;6190410;23;20442;-66
2023/02/09 09:46:19;;;;;;;4.53;1.80;;;16.10;68.80;;;;;;6188739;23;20050;-66
2023/02/09 09:48:52;;;;;;;3.20;1.80;;;16.10;68.80;;;;;;6213704;23;20031;-67
2023/02/09 09:51:52;;;;;;;3.65;1.75;;;16.10;68.70;;;;;;6189829;23;20011;-66
2023/02/09 09:54:22;;;;;;;3.20;1.58;;;16.10;68.70;;;;;;6105251;23;20018;-66
2023/02/09 09:56:50;;;;;;;4.15;1.52;;;16.10;68.60;;;;;;6123286;23;20079;-66
2023/02/09 09:59:21;;;;;;;2.90;1.35;;;16.10;68.60;;;;;;6122629;23;20041;-66
2023/02/09 10:01:47;;;;;;;3.08;1.70;;;16.10;68.50;;;;;;6123340;23;20455;-66
2023/02/09 10:04:13;;;;;;;4.40;1.45;;;16.10;68.50;;;;;;6122749;23;20502;-66
2023/02/09 10:06:40;;;;;;;4.03;1.45;;;16.10;68.50;;;;;;6123243;23;20053;-66
2023/02/09 10:09:16;;;;;;;3.05;1.45;;;16.10;68.50;;;;;;6123130;23;20085;-66
2023/02/09 10:11:47;;;;;;;2.95;1.20;;;16.10;68.50;;;;;;6123021;23;20087;-66
2023/02/09 10:14:14;;;;;;;3.13;1.40;;;16.10;68.40;;;;;;6123028;23;20033;-66
2023/02/09 10:16:40;;;;;;;3.05;1.30;;;16.10;68.40;;;;;;6122910;23;20002;-66
2023/02/09 10:19:17;;;;;;;3.22;1.40;;;16.10;68.30;;;;;;6122393;23;20089;-66
2023/02/09 10:21:43;;;;;;;2.67;1.33;;;16.10;68.20;;;;;;6123078;23;20009;-66
2023/02/09 10:24:10;;;;;;;4.28;1.30;;;16.10;68.20;;;;;;6122720;23;20010;-66
2023/02/09 10:26:36;;;;;;;2.92;1.40;;;16.10;68.20;;;;;;6122835;23;20006;-66
2023/02/09 10:29:11;;;;;;;2.42;1.30;;;16.10;68.20;;;;;;6137032;23;20071;-66
2023/02/09 10:31:45;;;;;;;3.45;1.40;;;16.10;68.20;;;;;;6214804;23;20010;-66
2023/02/09 10:34:19;;;;;;;1.90;1.35;;;16.10;68.10;;;;;;6212658;23;20005;-66
2023/02/09 10:36:49;;;;;;;2.63;1.17;;;16.10;68.10;;;;;;6213289;23;20011;-66
2023/02/09 10:39:31;;;;;;;4.80;1.67;;;16.10;68.10;;;;;;6213180;23;19996;-66
2023/02/09 10:42:10;;;;;;;2.35;1.02;;;16.10;68.00;;;;;;6189157;23;20004;-66
2023/02/09 10:44:36;;;;;;;2.78;1.20;;;16.10;68.00;;;;;;6190545;23;20057;-66
2023/02/09 10:47:27;;;;;;;2.70;1.27;;;16.10;68.00;;;;;;6187859;23;20075;-66
2023/02/09 10:50:11;;;;;;;1.67;1.20;;;16.10;68.00;;;;;;6213234;23;20025;-66
2023/02/09 10:53:01;;;;;;;2.78;1.27;;;16.10;67.90;;;;;;6214727;23;20001;-66
2023/02/09 10:55:36;;;;;;;2.55;1.40;;;16.10;68.00;;;;;;6213446;23;20000;-66
2023/02/09 10:58:08;;;;;;;2.17;1.10;;;16.10;67.90;;;;;;6188899;23;20015;-66
2023/02/09 11:00:46;;;;;;;2.20;1.17;;;16.10;67.90;;;;;;6213363;23;19997;-66
2023/02/09 11:03:18;;;;;;;2.30;1.10;;;16.10;67.80;;;;;;6212940;23;20071;-66
2023/02/09 11:05:45;;;;;;;2.13;1.00;;;16.10;67.80;;;;;;6213326;23;20015;-66
2023/02/09 11:08:20;;;;;;;3.08;1.20;;;16.10;67.80;;;;;;6213114;23;20005;-66
2023/02/09 11:11:07;;;;;;;2.88;1.20;;;16.10;67.80;;;;;;6213248;23;20016;-66
2023/02/09 11:13:34;;;;;;;1.80;1.10;;;16.10;67.80;;;;;;6213184;23;20004;-66
2023/02/09 11:16:11;;;;;;;2.63;1.27;;;16.10;67.70;;;;;;6212734;23;19996;-66
2023/02/09 11:18:37;;;;;;;2.13;1.02;;;16.10;67.80;;;;;;6214439;23;20329;-66
2023/02/09 11:21:04;;;;;;;0.93;0.82;;;16.10;67.70;;;;;;6213159;23;20080;-66
2023/02/09 11:23:30;;;;;;;2.10;0.70;;;16.10;67.70;;;;;;6214525;23;20341;-66
2023/02/09 11:26:30;;;;;;;1.10;0.95;;;16.10;67.70;;;;;;6214386;23;20008;-66
2023/02/09 11:28:58;;;;;;;2.42;1.00;;;16.10;67.70;;;;;;6212787;23;20016;-66
2023/02/09 11:31:32;;;;;;;2.53;1.20;;;16.10;67.70;;;;;;6214171;23;20454;-66
2023/02/09 11:34:28;;;;;;;1.20;0.80;;;16.10;67.60;;;;;;6214368;23;20029;-66
2023/02/09 11:37:05;;;;;;;2.55;1.00;;;16.10;67.60;;;;;;6214420;23;20003;-66
2023/02/09 11:40:04;;;;;;;3.00;1.20;;;16.10;67.50;;;;;;6189595;23;20051;-66
2023/02/09 11:42:44;;;;;;;0.80;0.80;;;16.10;67.60;;;;;;6185712;23;20021;-66
2023/02/09 11:45:29;;;;;;;2.97;1.08;;;16.10;67.50;;;;;;6190806;23;20008;-66
2023/02/09 11:48:24;;;;;;;1.77;0.93;;;16.10;67.50;;;;;;6214947;23;20460;-66
2023/02/09 11:50:55;;;;;;;1.05;0.90;;;16.10;67.50;;;;;;6216453;23;20075;-66
2023/02/09 11:53:32;;;;;;;1.08;0.82;;;16.10;67.50;;;;;;6216031;23;20008;-66
2023/02/09 11:55:59;;;;;;;1.10;0.63;;;16.10;67.50;;;;;;6191685;23;20007;-66
2023/02/09 11:58:39;;;;;;;2.15;0.82;;;16.10;67.50;;;;;;6189945;23;20039;-66
2023/02/09 12:01:42;;;;;;;1.00;0.80;;;16.20;67.50;;;;;;6215914;23;20001;-66
2023/02/09 12:04:41;;;;;;;1.85;1.30;;;16.10;67.50;;;;;;6216286;23;20051;-66
2023/02/09 12:07:20;;;;;;;1.60;0.80;;;16.10;67.50;;;;;;6216147;23;20062;-66
2023/02/09 12:10:07;;;;;;;2.22;0.85;;;16.10;67.40;;;;;;6214859;23;20011;-66
2023/02/09 12:12:43;;;;;;;1.05;0.70;;;16.10;67.50;;;;;;6214672;23;20000;-66
2023/02/09 12:15:16;;;;;;;2.20;0.90;;;16.10;67.40;;;;;;6214341;23;20004;-66
2023/02/09 12:17:57;;;;;;;0.80;0.60;;;16.10;67.40;;;;;;6214598;23;19997;-66
2023/02/09 12:20:36;;;;;;;1.77;0.80;;;16.10;67.50;;;;;;6216002;23;20076;-66
2023/02/09 12:23:06;;;;;;;0.88;0.68;;;16.10;67.40;;;;;;6214738;23;20001;-66
2023/02/09 12:25:44;;;;;;;0.90;0.82;;;16.20;68.50;;;;;;6190470;23;20067;-66
2023/02/09 12:28:16;;;;;;;0.93;0.70;;;16.20;67.40;;;;;;6215889;23;20086;-66
2023/02/09 12:30:41;;;;;;;1.85;0.90;;;16.10;67.40;;;;;;6215722;23;20027;-66
2023/02/09 12:33:22;;;;;;;1.77;0.90;;;16.20;67.40;;;;;;6215825;23;20437;-66
2023/02/09 12:36:06;;;;;;;1.17;0.98;;;16.10;67.40;;;;;;6215740;23;20495;-66
2023/02/09 12:38:48;;;;;;;1.05;0.57;;;16.10;67.30;;;;;;6215930;23;20001;-66
2023/02/09 12:41:17;;;;;;;1.03;0.70;;;16.20;67.30;;;;;;6215869;23;20001;-66
2023/02/09 12:43:44;;;;;;;0.95;0.70;;;16.20;67.40;;;;;;6190049;23;20230;-66
2023/02/09 12:46:21;;;;;;;0.63;0.60;;;16.10;67.40;;;;;;6214518;23;20001;-66
2023/02/09 12:49:11;;;;;;;0.80;0.60;;;16.20;67.40;;;;;;6215811;23;20035;-66
2023/02/09 12:51:49;;;;;;;0.90;0.55;;;16.10;67.20;;;;;;6215868;23;20007;-66
2023/02/09 12:54:34;;;;;;;0.88;0.52;;;16.20;67.30;;;;;;6215682;23;20140;-66
2023/02/09 12:57:15;;;;;;;1.85;0.73;;;16.20;67.30;;;;;;6215705;23;20001;-66
2023/02/09 12:59:52;;;;;;;0.90;0.60;;;16.20;67.30;;;;;;6215473;23;20005;-66
2023/02/09 13:02:34;;;;;;;0.60;0.60;;;16.20;67.30;;;;;;6215674;23;20003;-66
2023/02/09 13:05:01;;;;;;;0.90;0.60;;;16.10;67.20;;;;;;6214702;23;20003;-66
2023/02/09 13:07:33;;;;;;;0.82;0.60;;;16.20;67.30;;;;;;6213949;23;20003;-66
2023/02/09 13:10:13;;;;;;;2.37;0.67;;;16.20;67.20;;;;;;6215685;23;20437;-66